Time;durP1;ratioP1;P1;durP2;ratioP2;P2;SDS_P1;SDS_P2;PMS_P1;PMS_P2;Temp;Humidity;BMP_temperature;BMP_pressure;BME280_temperature;BME280_humidity;BME280_pressure;Samples;Min_cycle;Max_cycle;Signal;HPM_P1;HPM_P2
2022/05/05 00:02:01;;;;;;;9.27;6.88;;;;;;;15.33;nan;101775.22;5052293;28;20489;-49
2022/05/05 00:04:27;;;;;;;9.68;6.65;;;;;;;15.31;nan;101772.78;5046958;28;20047;-55
2022/05/05 00:06:53;;;;;;;11.43;7.00;;;;;;;15.26;nan;101774.59;5053819;28;20107;-51
2022/05/05 00:09:18;;;;;;;10.05;6.85;;;;;;;15.19;nan;101769.41;5054261;28;20021;-52
2022/05/05 00:14:28;;;;;;;10.90;6.82;;;;;;;15.08;nan;101768.50;5053911;28;20102;-55
2022/05/05 00:17:06;;;;;;;9.77;6.55;;;;;;;15.03;nan;101765.72;5055317;28;20036;-51
2022/05/05 00:19:34;;;;;;;12.18;6.53;;;;;;;15.04;nan;101772.75;5050094;28;20152;-50
2022/05/05 00:22:00;;;;;;;8.52;6.55;;;;;;;14.99;nan;101779.97;5051918;28;20020;-49
2022/05/05 00:24:25;;;;;;;8.15;6.20;;;;;;;14.96;nan;101781.28;5056852;28;20027;-53
2022/05/05 00:26:51;;;;;;;9.52;6.57;;;;;;;14.96;nan;101777.78;5056246;28;20024;-51
2022/05/05 00:29:17;;;;;;;11.15;7.65;;;;;;;14.94;nan;101778.03;5053783;28;20113;-48
2022/05/05 00:31:43;;;;;;;9.32;6.53;;;;;;;14.93;nan;101779.09;5054526;28;20107;-48
2022/05/05 00:34:09;;;;;;;11.98;7.32;;;;;;;14.93;nan;101781.81;5053091;28;20036;-52
2022/05/05 00:36:35;;;;;;;12.48;6.70;;;;;;;14.94;nan;101778.03;5052838;28;20031;-51
2022/05/05 00:39:01;;;;;;;24.20;7.63;;;;;;;14.90;nan;101776.06;5057279;28;20028;-50
2022/05/05 00:41:26;;;;;;;17.95;7.43;;;;;;;14.81;nan;101776.53;5056540;28;20528;-48
2022/05/05 00:43:52;;;;;;;17.58;8.85;;;;;;;14.79;nan;101778.66;5049075;28;20040;-53
2022/05/05 00:46:18;;;;;;;13.10;7.93;;;;;;;14.76;nan;101773.78;5057738;28;20437;-49
2022/05/05 00:48:44;;;;;;;9.98;7.43;;;;;;;14.67;nan;101777.97;5051711;28;20040;-50
2022/05/05 00:51:10;;;;;;;11.02;7.05;;;;;;;14.64;nan;101781.16;5054104;28;22046;-51
2022/05/05 00:53:36;;;;;;;9.23;7.10;;;;;;;14.64;nan;101769.56;5052877;28;20573;-50
2022/05/05 00:56:11;;;;;;;10.25;7.00;;;;;;;14.55;nan;101771.06;5057227;28;20181;-51
2022/05/05 00:58:39;;;;;;;10.65;7.10;;;;;;;14.54;nan;101778.31;5054437;28;20472;-52
2022/05/05 01:01:05;;;;;;;10.48;7.07;;;;;;;14.54;nan;101774.81;5059814;28;20013;-52
2022/05/05 01:03:35;;;;;;;10.07;6.90;;;;;;;14.49;nan;101765.59;5055722;28;20107;-53
2022/05/05 01:06:05;;;;;;;9.73;7.28;;;;;;;14.44;nan;101759.31;5056644;28;20028;-51
2022/05/05 01:08:33;;;;;;;10.10;6.80;;;;;;;14.37;nan;101766.75;5056038;28;20041;-53
2022/05/05 01:10:59;;;;;;;11.70;6.90;;;;;;;14.33;nan;101776.38;5055904;28;20386;-51
2022/05/05 01:13:27;;;;;;;9.95;7.25;;;;;;;14.30;nan;101768.78;5058639;28;20020;-54
2022/05/05 01:15:55;;;;;;;10.60;6.97;;;;;;;14.30;nan;101771.47;5059007;28;20063;-51
2022/05/05 01:18:21;;;;;;;9.95;6.93;;;;;;;14.28;nan;101774.44;5057360;28;20111;-52
2022/05/05 01:20:52;;;;;;;8.40;6.13;;;;;;;14.26;nan;101775.75;5058550;28;20027;-48
2022/05/05 01:23:18;;;;;;;8.82;6.28;;;;;;;14.24;nan;101767.09;5056971;28;20025;-50
2022/05/05 01:28:31;;;;;;;7.60;6.30;;;;;;;14.19;nan;101763.25;5058721;28;20055;-52
2022/05/05 01:30:57;;;;;;;10.52;5.95;;;;;;;14.17;nan;101772.63;5056624;28;20021;-49
2022/05/05 01:33:25;;;;;;;8.48;6.53;;;;;;;14.11;nan;101766.38;5056411;28;20036;-51
2022/05/05 01:35:53;;;;;;;10.15;6.85;;;;;;;14.04;nan;101765.72;5061779;28;20097;-54
2022/05/05 01:38:20;;;;;;;9.18;6.53;;;;;;;14.02;nan;101767.03;5059243;28;20040;-54
2022/05/05 01:40:46;;;;;;;9.20;6.07;;;;;;;13.99;nan;101765.63;5055347;28;20025;-51
2022/05/05 01:43:17;;;;;;;9.02;5.72;;;;;;;13.99;nan;101762.13;5057568;28;20034;-53
2022/05/05 01:45:43;;;;;;;9.98;5.90;;;;;;;14.01;nan;101768.91;5058055;28;20032;-49
2022/05/05 01:48:09;;;;;;;8.45;5.55;;;;;;;14.00;nan;101761.88;5058109;28;20032;-57
2022/05/05 01:50:36;;;;;;;10.07;6.28;;;;;;;13.96;nan;101766.13;5054560;28;20035;-54
2022/05/05 01:53:03;;;;;;;9.85;5.97;;;;;;;13.93;nan;101765.81;5055880;28;20039;-51
2022/05/05 01:55:33;;;;;;;8.85;6.47;;;;;;;13.90;nan;101767.94;5057197;28;20394;-51
2022/05/05 01:57:59;;;;;;;8.10;5.80;;;;;;;13.89;nan;101765.47;5062059;28;20111;-48
2022/05/05 02:00:26;;;;;;;9.85;6.38;;;;;;;13.89;nan;101770.88;5059041;28;20154;-55
2022/05/05 02:02:52;;;;;;;8.27;5.97;;;;;;;13.89;nan;101773.56;5059084;28;20027;-47
2022/05/05 02:05:18;;;;;;;10.15;6.60;;;;;;;13.88;nan;101763.84;5057831;28;20021;-48
2022/05/05 02:07:45;;;;;;;8.00;5.97;;;;;;;13.88;nan;101780.03;5058434;28;20024;-48
2022/05/05 02:10:14;;;;;;;7.88;5.80;;;;;;;13.85;nan;101778.63;5060710;28;20031;-48
2022/05/05 02:12:41;;;;;;;8.57;6.22;;;;;;;13.81;nan;101772.06;5056213;28;20791;-48
2022/05/05 02:15:08;;;;;;;8.73;6.97;;;;;;;13.79;nan;101770.69;5061803;28;20051;-48
2022/05/05 02:17:35;;;;;;;11.90;6.72;;;;;;;13.74;nan;101768.75;5057357;28;20032;-47
2022/05/05 02:20:02;;;;;;;10.30;6.43;;;;;;;13.72;nan;101770.88;5059959;28;20081;-47
2022/05/05 02:22:28;;;;;;;9.02;6.40;;;;;;;13.70;nan;101777.56;5057830;28;20034;-48
2022/05/05 02:24:54;;;;;;;8.95;6.20;;;;;;;13.64;nan;101778.50;5061053;28;20024;-48
2022/05/05 02:27:19;;;;;;;10.93;6.45;;;;;;;13.57;nan;101784.06;5056180;28;20036;-47
2022/05/05 02:29:49;;;;;;;9.60;6.35;;;;;;;13.53;nan;101772.97;5056705;28;20461;-48
2022/05/05 02:32:16;;;;;;;11.18;8.05;;;;;;;13.50;nan;101780.72;5056593;28;20033;-48
2022/05/05 02:34:42;;;;;;;10.20;7.00;;;;;;;13.42;nan;101781.91;5057799;28;20952;-48
2022/05/05 02:39:52;;;;;;;14.05;8.18;;;;;;;13.32;nan;101791.69;5057484;28;20040;-47
2022/05/05 02:42:17;;;;;;;10.10;7.53;;;;;;;13.33;nan;101786.06;5056505;28;20017;-48
2022/05/05 02:44:43;;;;;;;13.20;7.05;;;;;;;13.33;nan;101787.94;5060192;28;20063;-49
2022/05/05 02:47:09;;;;;;;14.18;7.97;;;;;;;13.33;nan;101787.94;5061409;28;20066;-51
2022/05/05 02:49:38;;;;;;;13.68;7.72;;;;;;;13.32;nan;101789.81;5057981;28;20032;-47
2022/05/05 02:52:05;;;;;;;14.77;7.55;;;;;;;13.24;nan;101792.88;5055763;28;20029;-48
2022/05/05 02:54:52;;;;;;;11.00;7.22;;;;;;;13.23;nan;101796.63;5056835;28;20485;-48
2022/05/05 02:57:19;;;;;;;12.95;7.10;;;;;;;13.16;nan;101787.84;5055679;28;20055;-48
2022/05/05 02:59:44;;;;;;;10.40;7.50;;;;;;;13.15;nan;101786.22;5057122;28;20025;-48
2022/05/05 03:02:10;;;;;;;14.70;8.02;;;;;;;13.13;nan;101794.53;5054084;28;20074;-49
2022/05/05 03:04:35;;;;;;;12.02;7.10;;;;;;;13.12;nan;101781.31;5056457;28;20032;-47
2022/05/05 03:07:01;;;;;;;12.00;7.15;;;;;;;13.09;nan;101781.78;5056210;28;20033;-48
2022/05/05 03:09:26;;;;;;;11.35;7.05;;;;;;;13.04;nan;101781.69;5054015;28;20040;-47
2022/05/05 03:11:52;;;;;;;9.15;6.93;;;;;;;13.04;nan;101787.06;5056510;28;20106;-46
2022/05/05 03:14:18;;;;;;;13.70;7.88;;;;;;;13.03;nan;101797.00;5056504;28;20082;-48
2022/05/05 03:16:43;;;;;;;12.52;7.15;;;;;;;13.02;nan;101796.19;5054568;28;20021;-47
2022/05/05 03:19:09;;;;;;;13.90;7.80;;;;;;;13.00;nan;101801.00;5053907;28;20020;-48
2022/05/05 03:21:36;;;;;;;14.27;7.75;;;;;;;12.95;nan;101797.41;5057289;28;20016;-47
2022/05/05 03:24:01;;;;;;;12.60;7.57;;;;;;;12.93;nan;101794.94;5057747;28;20025;-48
2022/05/05 03:26:27;;;;;;;11.18;7.88;;;;;;;12.94;nan;101793.91;5057711;28;20051;-47
2022/05/05 03:28:52;;;;;;;14.82;7.65;;;;;;;12.94;nan;101793.91;5058079;28;20024;-48
2022/05/05 03:31:18;;;;;;;11.60;7.38;;;;;;;12.93;nan;101797.66;5058349;28;20056;-48
2022/05/05 03:33:43;;;;;;;15.70;7.30;;;;;;;12.94;nan;101810.03;5057391;28;20028;-48
2022/05/05 03:36:09;;;;;;;11.95;7.35;;;;;;;12.92;nan;101814.00;5055134;28;20346;-48
2022/05/05 03:38:35;;;;;;;19.67;7.80;;;;;;;12.87;nan;101820.09;5055251;28;20024;-47
2022/05/05 03:41:01;;;;;;;14.95;7.57;;;;;;;12.83;nan;101826.19;5058684;28;20033;-47
2022/05/05 03:43:26;;;;;;;12.98;7.90;;;;;;;12.83;nan;101831.56;5055943;28;20032;-47
2022/05/05 03:45:52;;;;;;;12.18;7.30;;;;;;;12.82;nan;101830.75;5054591;28;20044;-47
2022/05/05 03:48:17;;;;;;;14.48;7.93;;;;;;;12.78;nan;101834.16;5059746;28;20036;-48
2022/05/05 03:50:43;;;;;;;10.05;7.07;;;;;;;12.74;nan;101827.59;5055854;28;20028;-48
2022/05/05 03:53:09;;;;;;;12.25;7.15;;;;;;;12.73;nan;101825.97;5054890;28;20036;-48
2022/05/05 03:55:34;;;;;;;13.00;7.75;;;;;;;12.71;nan;101828.88;5056226;28;20028;-47
2022/05/05 03:58:00;;;;;;;11.13;7.45;;;;;;;12.70;nan;101830.75;5055482;28;20047;-47
2022/05/05 04:00:26;;;;;;;12.90;8.20;;;;;;;12.71;nan;101831.56;5055328;28;20019;-47
2022/05/05 04:05:36;;;;;;;15.20;8.35;;;;;;;12.70;nan;101830.75;5056690;28;20455;-47
2022/05/05 04:08:02;;;;;;;15.15;7.60;;;;;;;12.71;nan;101837.78;5055376;28;20103;-48
2022/05/05 04:10:28;;;;;;;11.98;7.10;;;;;;;12.73;nan;101834.84;5056490;28;20032;-47
2022/05/05 04:12:55;;;;;;;13.40;7.60;;;;;;;12.72;nan;101830.50;5051843;28;20256;-48
2022/05/05 04:15:20;;;;;;;12.00;7.20;;;;;;;12.74;nan;101828.41;5055990;28;20036;-46
2022/05/05 04:17:46;;;;;;;12.98;8.02;;;;;;;12.77;nan;101838.72;5054608;28;20048;-47
2022/05/05 04:20:12;;;;;;;14.60;8.00;;;;;;;12.79;nan;101833.91;5055187;28;20051;-47
2022/05/05 04:22:38;;;;;;;13.60;8.68;;;;;;;12.79;nan;101831.22;5056061;28;20493;-47
2022/05/05 04:25:04;;;;;;;13.57;7.78;;;;;;;12.79;nan;101838.47;5055357;28;20586;-48
2022/05/05 04:27:30;;;;;;;15.85;8.40;;;;;;;12.75;nan;101835.44;5058737;28;20052;-48
2022/05/05 04:29:55;;;;;;;15.35;7.63;;;;;;;12.73;nan;101829.47;5053661;28;20067;-47
2022/05/05 04:32:21;;;;;;;12.35;7.78;;;;;;;12.73;nan;101840.22;5054518;28;20021;-49
2022/05/05 04:34:47;;;;;;;17.10;7.88;;;;;;;12.73;nan;101844.78;5055022;28;20036;-46
2022/05/05 04:37:13;;;;;;;13.27;7.07;;;;;;;12.74;nan;101841.84;5054454;28;20086;-47
2022/05/05 04:39:39;;;;;;;13.88;8.02;;;;;;;12.75;nan;101840.81;5056745;28;20033;-48
2022/05/05 04:42:06;;;;;;;15.43;7.95;;;;;;;12.79;nan;101855.44;5054333;28;20016;-49
2022/05/05 04:44:31;;;;;;;14.20;7.40;;;;;;;12.76;nan;101847.84;5053474;28;20028;-48
2022/05/05 04:46:57;;;;;;;13.80;7.13;;;;;;;12.82;nan;101851.44;5059627;28;20374;-49
2022/05/05 04:49:22;;;;;;;12.02;7.65;;;;;;;12.85;nan;101846.41;5055425;28;20099;-47
2022/05/05 04:51:48;;;;;;;11.10;6.72;;;;;;;12.84;nan;101850.16;5053488;28;20060;-48
2022/05/05 04:54:13;;;;;;;13.18;7.47;;;;;;;12.86;nan;101842.66;5054431;28;20039;-47
2022/05/05 04:56:39;;;;;;;11.77;7.68;;;;;;;12.82;nan;101841.50;5055410;28;20064;-47
2022/05/05 04:59:04;;;;;;;16.00;7.97;;;;;;;12.81;nan;101847.13;5052990;28;20513;-47
2022/05/05 05:01:30;;;;;;;15.38;8.23;;;;;;;12.79;nan;101844.69;5053996;28;20035;-46
2022/05/05 05:03:55;;;;;;;14.90;7.70;;;;;;;12.78;nan;101855.66;5057624;28;20032;-48
2022/05/05 05:06:21;;;;;;;13.88;8.10;;;;;;;12.76;nan;101866.66;5057160;28;20474;-47
2022/05/05 05:08:47;;;;;;;14.27;8.23;;;;;;;12.74;nan;101871.44;5046949;28;20033;-47
2022/05/05 05:11:12;;;;;;;13.57;8.13;;;;;;;12.74;nan;101887.56;5050708;28;20087;-47
2022/05/05 05:13:38;;;;;;;15.18;7.80;;;;;;;12.73;nan;101894.00;5045612;28;20544;-48
2022/05/05 05:16:04;;;;;;;13.90;8.05;;;;;;;12.72;nan;101900.44;5054427;28;20050;-50
2022/05/05 05:18:30;;;;;;;16.13;8.57;;;;;;;12.66;nan;101901.38;5049777;28;20043;-48
2022/05/05 05:20:56;;;;;;;10.57;7.70;;;;;;;12.65;nan;101903.25;5058541;28;20055;-47
2022/05/05 05:23:22;;;;;;;16.85;9.07;;;;;;;12.66;nan;101898.69;5053915;28;20129;-47
2022/05/05 05:25:48;;;;;;;19.50;8.27;;;;;;;12.68;nan;101894.72;5057492;28;20492;-46
2022/05/05 05:28:13;;;;;;;16.13;8.77;;;;;;;12.70;nan;101887.22;5054248;28;20115;-46
2022/05/05 05:30:40;;;;;;;17.58;8.45;;;;;;;12.68;nan;101896.59;5057294;28;20426;-47
2022/05/05 05:33:06;;;;;;;18.38;9.27;;;;;;;12.66;nan;101893.31;5059003;28;20414;-46
2022/05/05 05:35:31;;;;;;;21.17;9.27;;;;;;;12.65;nan;101900.56;5055804;28;20029;-47
2022/05/05 05:37:57;;;;;;;16.77;9.55;;;;;;;12.68;nan;101900.09;5054460;28;20139;-47
2022/05/05 05:40:22;;;;;;;16.77;8.02;;;;;;;12.73;nan;101896.69;5049783;28;20126;-47
2022/05/05 05:42:48;;;;;;;15.32;8.73;;;;;;;12.77;nan;101895.19;5056157;28;20119;-47
2022/05/05 05:45:13;;;;;;;17.80;8.93;;;;;;;12.84;nan;101897.75;5056498;28;20056;-47
2022/05/05 05:47:39;;;;;;;18.30;8.85;;;;;;;12.92;nan;101903.56;5058536;28;20040;-46
2022/05/05 05:50:04;;;;;;;15.25;9.38;;;;;;;12.98;nan;101901.84;5059423;28;20024;-47
2022/05/05 05:52:30;;;;;;;12.05;8.32;;;;;;;13.07;nan;101907.66;5057330;28;20091;-47
2022/05/05 05:54:56;;;;;;;17.65;8.68;;;;;;;13.13;nan;101915.63;5058539;28;20035;-47
2022/05/05 05:57:21;;;;;;;19.95;9.80;;;;;;;13.18;nan;101909.56;5059558;28;20025;-47
2022/05/05 05:59:47;;;;;;;16.83;8.77;;;;;;;13.18;nan;101914.94;5057153;28;20496;-47
2022/05/05 06:04:56;;;;;;;13.70;7.55;;;;;;;13.16;nan;101919.72;5060081;28;20490;-47
2022/05/05 06:07:22;;;;;;;13.90;7.20;;;;;;;13.15;nan;101916.19;5054409;28;20036;-47
2022/05/05 06:09:47;;;;;;;13.80;7.70;;;;;;;13.20;nan;101910.13;5055609;28;20627;-47
2022/05/05 06:12:13;;;;;;;11.90;7.88;;;;;;;13.14;nan;101903.00;5059381;28;20024;-47
2022/05/05 06:14:38;;;;;;;13.50;8.43;;;;;;;13.19;nan;101905.81;5057228;28;20059;-47
2022/05/05 06:17:04;;;;;;;15.40;8.27;;;;;;;13.23;nan;101909.66;5056331;28;20021;-47
2022/05/05 06:19:29;;;;;;;13.65;7.50;;;;;;;13.20;nan;101910.94;5058582;28;20059;-47
2022/05/05 06:21:56;;;;;;;15.95;8.15;;;;;;;13.19;nan;101921.97;5055285;28;20036;-47
2022/05/05 06:24:21;;;;;;;16.08;7.25;;;;;;;13.09;nan;101927.88;5057444;28;20024;-47
2022/05/05 06:26:47;;;;;;;15.25;7.38;;;;;;;13.09;nan;101929.75;5055539;28;20031;-47
2022/05/05 06:29:13;;;;;;;15.10;7.60;;;;;;;13.11;nan;101930.38;5056624;28;20025;-47
2022/05/05 06:31:38;;;;;;;12.85;8.10;;;;;;;13.12;nan;101934.69;5055066;28;20633;-48
2022/05/05 06:34:04;;;;;;;11.65;6.75;;;;;;;13.09;nan;101932.44;5055156;28;20033;-47
2022/05/05 06:36:30;;;;;;;14.32;7.40;;;;;;;13.06;nan;101936.44;5056330;28;20119;-47
2022/05/05 06:38:55;;;;;;;13.23;8.32;;;;;;;13.05;nan;101937.50;5055216;28;20025;-47
2022/05/05 06:41:21;;;;;;;12.18;8.00;;;;;;;13.06;nan;101930.25;5056034;28;20429;-48
2022/05/05 06:43:46;;;;;;;15.50;8.30;;;;;;;13.08;nan;101941.59;5054860;28;20021;-48
2022/05/05 06:46:12;;;;;;;13.30;7.57;;;;;;;13.14;nan;101946.88;5053385;28;20450;-47
2022/05/05 06:48:38;;;;;;;17.83;9.85;;;;;;;13.25;nan;101950.59;5053084;28;20033;-47
2022/05/05 06:51:04;;;;;;;15.73;8.63;;;;;;;13.34;nan;101951.06;5059302;28;20020;-47
2022/05/05 06:53:30;;;;;;;17.08;9.60;;;;;;;13.41;nan;101962.50;5054604;28;20040;-48
2022/05/05 06:55:58;;;;;;;17.27;9.50;;;;;;;13.50;nan;101972.69;5054436;28;20457;-47
2022/05/05 06:58:25;;;;;;;16.75;9.32;;;;;;;13.60;nan;101974.75;5054266;28;20037;-48
2022/05/05 07:03:35;;;;;;;15.95;10.07;;;;;;;13.88;nan;101979.38;5051334;28;20044;-47
2022/05/05 07:06:01;;;;;;;18.20;12.23;;;;;;;13.95;nan;101984.59;5059659;28;20024;-47
2022/05/05 07:10:52;;;;;;;17.98;11.80;;;;;;;13.98;nan;101990.31;5056618;28;20032;-47
2022/05/05 07:11:13;;;;;;;22.85;12.43;;;;;;;14.01;nan;101992.56;5056274;28;20032;-47
2022/05/05 07:13:39;;;;;;;19.50;12.18;;;;;;;14.06;nan;101992.66;5055870;28;20153;-47
2022/05/05 07:16:04;;;;;;;17.95;12.05;;;;;;;14.13;nan;101990.63;5055404;28;20035;-47
2022/05/05 07:18:30;;;;;;;21.63;11.63;;;;;;;14.21;nan;101986.75;5050562;28;20482;-48
2022/05/05 07:20:55;;;;;;;19.65;11.15;;;;;;;14.24;nan;101980.03;5054871;28;20110;-48
2022/05/05 07:23:21;;;;;;;21.23;11.82;;;;;;;14.23;nan;101981.09;5053952;28;20552;-49
2022/05/05 07:25:46;;;;;;;21.88;11.70;;;;;;;14.29;nan;101975.53;5056592;28;20028;-47
2022/05/05 07:28:13;;;;;;;19.70;11.82;;;;;;;14.41;nan;101984.41;5057487;28;20059;-47
2022/05/05 07:30:39;;;;;;;24.02;12.52;;;;;;;14.52;nan;101983.53;5058777;28;20097;-48
2022/05/05 07:33:05;;;;;;;22.60;12.18;;;;;;;14.62;nan;101987.47;5058571;28;20020;-48
2022/05/05 07:35:31;;;;;;;22.58;11.98;;;;;;;14.80;nan;101987.22;5052805;28;20031;-48
2022/05/05 07:37:56;;;;;;;25.75;12.73;;;;;;;15.00;nan;101990.22;5062671;28;20280;-48
2022/05/05 07:40:22;;;;;;;22.60;12.27;;;;;;;15.21;nan;101999.44;5056314;28;20028;-47
2022/05/05 07:42:47;;;;;;;20.00;11.88;;;;;;;15.39;nan;101995.63;5056055;28;20067;-48
2022/05/05 07:45:13;;;;;;;18.88;11.10;;;;;;;15.58;nan;101988.03;5048215;28;20062;-48
2022/05/05 07:47:38;;;;;;;20.83;12.02;;;;;;;15.67;nan;101991.97;5057137;28;20217;-48
2022/05/05 07:50:05;;;;;;;18.45;10.48;;;;;;;15.84;nan;101997.31;5056191;28;20462;-48
2022/05/05 07:52:31;;;;;;;19.85;9.43;;;;;;;15.88;nan;101995.72;5053379;28;20614;-47
2022/05/05 07:54:56;;;;;;;14.00;8.52;;;;;;;15.92;nan;101996.84;5053140;28;20036;-48
2022/05/05 07:57:22;;;;;;;11.02;7.80;;;;;;;16.00;nan;102002.63;5055015;28;20100;-49
2022/05/05 07:59:48;;;;;;;12.68;8.15;;;;;;;16.13;nan;102001.41;5057977;28;20119;-48
2022/05/05 08:02:15;;;;;;;15.88;8.93;;;;;;;16.26;nan;102011.00;5058452;28;20027;-48
2022/05/05 08:04:42;;;;;;;16.20;7.63;;;;;;;16.32;nan;102015.38;5056316;28;20037;-52
2022/05/05 08:07:07;;;;;;;15.25;7.30;;;;;;;16.32;nan;102012.69;5054076;28;20466;-51
2022/05/05 08:09:33;;;;;;;13.40;7.95;;;;;;;16.37;nan;102018.16;5059628;28;20349;-50
2022/05/05 08:11:59;;;;;;;12.57;7.70;;;;;;;16.35;nan;102014.09;5060982;28;20470;-54
2022/05/05 08:14:26;;;;;;;15.10;7.60;;;;;;;16.37;nan;102012.75;5056031;28;20028;-52
2022/05/05 08:16:52;;;;;;;10.88;7.45;;;;;;;16.44;nan;102020.66;5056161;28;20028;-53
2022/05/05 08:19:18;;;;;;;14.38;7.82;;;;;;;16.48;nan;102008.25;5055504;28;20029;-53
2022/05/05 08:21:43;;;;;;;15.40;8.50;;;;;;;16.47;nan;102012.00;5051045;28;20470;-50
2022/05/05 08:29:37;;;;;;;16.92;9.30;;;;;;;16.44;nan;102034.19;5051350;28;20039;-48
2022/05/05 08:32:02;;;;;;;15.57;9.80;;;;;;;16.60;nan;102036.78;5055740;28;20262;-51
2022/05/05 08:34:28;;;;;;;19.13;9.07;;;;;;;16.60;nan;102039.47;5057374;28;20029;-52
2022/05/05 08:36:53;;;;;;;13.10;8.30;;;;;;;16.78;nan;102034.78;5056594;28;20040;-48
2022/05/05 08:39:19;;;;;;;17.10;8.50;;;;;;;16.74;nan;102030.97;5058850;28;20094;-49
2022/05/05 08:41:46;;;;;;;14.30;7.95;;;;;;;16.82;nan;102044.84;5059000;28;20025;-52
2022/05/05 08:44:12;;;;;;;14.13;8.40;;;;;;;16.90;nan;102049.78;5055197;28;20036;-54
2022/05/05 08:46:40;;;;;;;14.00;7.30;;;;;;;16.84;nan;102055.41;5058547;28;20406;-50
2022/05/05 08:49:07;;;;;;;8.98;4.97;;;;;;;16.46;nan;102065.31;5059082;28;20039;-53
2022/05/05 08:51:45;;;;;;;13.35;5.32;;;;;;;16.29;nan;102065.41;5052545;28;20024;-49
2022/05/05 08:54:16;;;;;;;11.68;5.97;;;;;;;15.98;nan;102068.84;5055512;28;20442;-53
2022/05/05 08:56:48;;;;;;;7.47;5.65;;;;;;;15.66;nan;102063.28;5055529;28;20025;-51
2022/05/05 08:59:17;;;;;;;10.02;5.80;;;;;;;15.87;nan;102070.59;5056472;28;20028;-53
2022/05/05 09:01:43;;;;;;;9.50;5.93;;;;;;;15.87;nan;102070.59;5058399;28;20074;-50
2022/05/05 09:04:09;;;;;;;10.55;5.80;;;;;;;15.89;nan;102068.44;5056475;28;20426;-51
2022/05/05 09:06:51;;;;;;;12.23;6.53;;;;;;;15.78;nan;102069.38;5056512;28;20151;-49
2022/05/05 09:09:24;;;;;;;11.15;6.45;;;;;;;15.85;nan;102071.91;5056696;28;20025;-53
2022/05/05 09:12:12;;;;;;;10.73;6.18;;;;;;;15.79;nan;102075.59;5060051;28;20032;-56
2022/05/05 09:14:48;;;;;;;13.50;7.05;;;;;;;15.89;nan;102076.56;5054885;28;20112;-49
2022/05/05 09:17:17;;;;;;;11.20;6.47;;;;;;;15.88;nan;102080.34;5061797;28;20040;-51
2022/05/05 09:19:46;;;;;;;9.25;6.32;;;;;;;16.05;nan;102071.34;5065064;28;20063;-49
2022/05/05 09:22:12;;;;;;;11.25;5.50;;;;;;;16.06;nan;102075.69;5064954;28;20027;-52
2022/05/05 09:24:43;;;;;;;12.38;5.25;;;;;;;16.05;nan;102082.16;5062001;28;20401;-53
2022/05/05 09:27:19;;;;;;;11.80;5.28;;;;;;;15.83;nan;102080.28;5059358;28;20028;-51
2022/05/05 09:30:04;;;;;;;12.52;5.00;;;;;;;15.84;nan;102081.91;5065855;28;20135;-52
2022/05/05 09:32:41;;;;;;;10.57;4.85;;;;;;;15.68;nan;102090.88;5064355;28;20036;-50
2022/05/05 09:35:15;;;;;;;6.80;5.30;;;;;;;15.52;nan;102094.41;5055521;28;20444;-51
2022/05/05 09:37:45;;;;;;;7.38;4.43;;;;;;;15.46;nan;102092.69;5061549;28;20036;-51
2022/05/05 09:40:13;;;;;;;8.90;5.38;;;;;;;15.27;nan;102101.06;5062007;28;20270;-54
2022/05/05 09:42:41;;;;;;;10.77;5.25;;;;;;;15.12;nan;102108.91;5059694;28;20047;-53
2022/05/05 09:45:22;;;;;;;9.45;4.82;;;;;;;14.98;nan;102121.09;5054240;28;20089;-54
2022/05/05 09:47:52;;;;;;;9.70;4.85;;;;;;;14.80;nan;102114.03;5056079;28;20515;-49
2022/05/05 09:50:20;;;;;;;9.40;5.63;;;;;;;14.89;nan;102114.44;5055361;28;20394;-48
2022/05/05 09:58:18;;;;;;;6.70;4.57;;;;;;;15.40;nan;102113.38;5059140;28;20504;-52
2022/05/05 10:01:04;;;;;;;8.20;5.03;;;;;;;15.56;nan;102115.25;5059295;28;20034;-51
2022/05/05 10:06:19;;;;;;;15.50;5.57;;;;;;;15.63;nan;102120.53;5057654;28;20043;-54
2022/05/05 10:08:46;;;;;;;10.35;5.32;;;;;;;15.60;nan;102113.72;5058564;28;20063;-52
2022/05/05 10:11:16;;;;;;;10.82;5.38;;;;;;;15.57;nan;102116.06;5057125;28;20074;-49
2022/05/05 10:13:45;;;;;;;8.65;4.97;;;;;;;15.69;nan;102108.72;5058030;28;20028;-52
2022/05/05 10:16:14;;;;;;;12.27;5.53;;;;;;;15.78;nan;102109.91;5057629;28;20024;-53
2022/05/05 10:18:41;;;;;;;9.63;5.22;;;;;;;15.90;nan;102110.63;5058284;28;20058;-51
2022/05/05 10:21:13;;;;;;;11.98;4.80;;;;;;;15.91;nan;102106.03;5058385;28;20031;-52
2022/05/05 10:24:03;;;;;;;7.53;4.68;;;;;;;15.99;nan;102109.13;5055424;28;20042;-53
2022/05/05 10:26:29;;;;;;;11.73;4.90;;;;;;;16.08;nan;102108.69;5055746;28;20029;-54
2022/05/05 10:28:55;;;;;;;8.68;4.20;;;;;;;16.11;nan;102113.59;5053472;28;20016;-49
2022/05/05 10:31:34;;;;;;;8.95;3.90;;;;;;;16.21;nan;102116.44;5053818;28;20112;-53
2022/05/05 10:34:01;;;;;;;7.80;4.00;;;;;;;16.35;nan;102114.97;5056133;28;20143;-52
2022/05/05 10:36:28;;;;;;;7.07;3.90;;;;;;;16.44;nan;102116.16;5050347;28;21434;-49
2022/05/05 10:38:53;;;;;;;8.13;3.92;;;;;;;16.52;nan;102118.41;5053323;28;20024;-49
2022/05/05 10:41:40;;;;;;;9.88;3.97;;;;;;;16.55;nan;102117.09;5060048;28;20027;-49
2022/05/05 10:44:18;;;;;;;8.85;3.95;;;;;;;16.65;nan;102119.88;5055079;28;20365;-51
2022/05/05 10:46:55;;;;;;;7.78;4.22;;;;;;;16.68;nan;102116.69;5052960;28;20025;-52
2022/05/05 10:49:42;;;;;;;5.65;4.00;;;;;;;16.56;nan;102119.53;5057057;28;20164;-50
2022/05/05 10:52:16;;;;;;;8.45;4.07;;;;;;;16.52;nan;102121.13;5054654;28;20055;-50
2022/05/05 10:54:44;;;;;;;9.45;5.05;;;;;;;16.39;nan;102120.69;5054448;28;20146;-48
2022/05/05 10:57:25;;;;;;;5.25;4.00;;;;;;;16.49;nan;102121.59;5056872;28;20098;-50
2022/05/05 11:00:10;;;;;;;9.52;4.57;;;;;;;16.66;nan;102126.09;5055460;28;20110;-49
2022/05/05 11:02:37;;;;;;;9.88;3.60;;;;;;;16.95;nan;102137.53;5054703;28;20450;-49
2022/05/05 11:05:20;;;;;;;5.40;3.90;;;;;;;17.10;nan;102133.06;5055069;28;20028;-51
2022/05/05 11:07:49;;;;;;;10.52;4.13;;;;;;;17.37;nan;102137.59;5056353;28;20438;-52
2022/05/05 11:10:45;;;;;;;9.27;3.95;;;;;;;17.53;nan;102140.16;5053997;28;20035;-51
2022/05/05 11:13:38;;;;;;;10.00;3.70;;;;;;;17.65;nan;102136.44;5054612;28;20039;-54
2022/05/05 11:22:09;;;;;;;8.38;4.40;;;;;;;18.04;nan;102129.63;5055340;28;20086;-49
2022/05/05 11:24:35;;;;;;;7.25;3.88;;;;;;;18.19;nan;102136.22;5054327;28;20032;-49
2022/05/05 11:27:01;;;;;;;9.05;4.13;;;;;;;18.48;nan;102145.53;5053672;28;20301;-50
2022/05/05 11:29:31;;;;;;;9.20;4.25;;;;;;;18.79;nan;102135.59;5057824;28;20432;-52
2022/05/05 11:31:58;;;;;;;7.18;3.72;;;;;;;19.05;nan;102139.16;5051941;28;20028;-51
2022/05/05 11:34:31;;;;;;;8.85;4.00;;;;;;;19.27;nan;102136.16;5050879;28;20723;-56
2022/05/05 11:36:58;;;;;;;11.77;4.13;;;;;;;19.39;nan;102131.28;5047724;28;20501;-54
2022/05/05 11:39:23;;;;;;;10.70;4.22;;;;;;;19.16;nan;102137.25;5051093;28;20024;-54
2022/05/05 11:42:06;;;;;;;9.05;5.05;;;;;;;18.60;nan;102131.72;5047729;28;20024;-53
2022/05/05 11:44:41;;;;;;;7.75;4.03;;;;;;;18.55;nan;102131.72;5050236;28;20112;-52
2022/05/05 11:47:12;;;;;;;7.55;4.40;;;;;;;18.73;nan;102128.53;5054801;28;20063;-49
2022/05/05 11:49:39;;;;;;;7.40;4.55;;;;;;;18.70;nan;102132.59;5056457;28;20496;-51
2022/05/05 11:52:05;;;;;;;7.95;4.60;;;;;;;18.94;nan;102137.50;5052807;28;20035;-53
2022/05/05 11:54:32;;;;;;;9.18;4.40;;;;;;;19.00;nan;102128.28;5054647;28;20036;-51
2022/05/05 11:56:59;;;;;;;9.32;5.15;;;;;;;19.19;nan;102133.97;5057722;28;20063;-51
2022/05/05 12:02:12;;;;;;;7.65;4.28;;;;;;;19.44;nan;102147.56;5051040;28;20043;-52
2022/05/05 12:04:49;;;;;;;11.38;5.07;;;;;;;19.27;nan;102147.84;5054811;28;20040;-54
2022/05/05 12:07:20;;;;;;;8.18;4.70;;;;;;;19.40;nan;102145.69;5053449;28;20441;-50
2022/05/05 12:09:52;;;;;;;12.48;5.35;;;;;;;19.31;nan;102153.53;5052590;28;20078;-54
2022/05/05 12:12:20;;;;;;;9.35;6.03;;;;;;;18.71;nan;102144.28;5053881;28;20032;-51
2022/05/05 12:15:00;;;;;;;10.75;5.38;;;;;;;18.62;nan;102151.25;5056301;28;20051;-53
2022/05/05 12:17:41;;;;;;;9.13;5.07;;;;;;;18.53;nan;102148.28;5054026;28;20037;-49